Time;durP1;ratioP1;P1;durP2;ratioP2;P2;SDS_P1;SDS_P2;PMS_P1;PMS_P2;Temp;Humidity;BMP_temperature;BMP_pressure;BME280_temperature;BME280_humidity;BME280_pressure;Samples;Min_cycle;Max_cycle;Signal;HPM_P1;HPM_P2
2022/03/26 00:00:32;;;;;;;49.25;26.17;;;7.10;99.90;;;;;;5141797;27;20027;-39
2022/03/26 00:02:57;;;;;;;45.95;25.30;;;7.00;99.90;;;;;;5138582;27;20019;-39
2022/03/26 00:05:23;;;;;;;48.63;25.92;;;7.10;99.90;;;;;;5137637;27;20032;-39
2022/03/26 00:07:48;;;;;;;48.97;25.88;;;7.00;99.90;;;;;;5151415;27;20102;-39
2022/03/26 00:10:15;;;;;;;46.38;25.65;;;7.00;99.90;;;;;;5149231;27;20022;-39
2022/03/26 00:12:40;;;;;;;46.15;23.58;;;7.10;99.90;;;;;;5142640;27;20023;-39
2022/03/26 00:15:07;;;;;;;45.72;25.17;;;7.00;99.90;;;;;;5134009;27;20165;-39
2022/03/26 00:17:33;;;;;;;45.53;25.15;;;7.10;99.90;;;;;;5150108;27;20019;-39
2022/03/26 00:19:59;;;;;;;48.42;24.35;;;7.20;99.90;;;;;;5150309;27;20023;-38
2022/03/26 00:22:24;;;;;;;49.45;24.92;;;7.20;99.90;;;;;;5148362;27;20054;-38
2022/03/26 00:24:50;;;;;;;54.08;26.33;;;7.20;99.90;;;;;;5142039;27;20019;-38
2022/03/26 00:27:16;;;;;;;43.10;23.98;;;7.30;99.90;;;;;;5150316;27;20027;-38
2022/03/26 00:29:42;;;;;;;56.60;27.40;;;7.30;99.90;;;;;;5129796;27;20015;-39
2022/03/26 00:32:08;;;;;;;47.17;23.98;;;7.30;99.90;;;;;;5145858;27;20087;-39
2022/03/26 00:34:33;;;;;;;53.78;26.33;;;7.40;99.90;;;;;;5150602;27;20025;-39
2022/03/26 00:37:00;;;;;;;54.60;26.45;;;7.40;99.90;;;;;;5150586;27;20494;-39
2022/03/26 00:39:26;;;;;;;56.30;26.50;;;7.40;99.90;;;;;;5145798;27;20256;-39
2022/03/26 00:41:51;;;;;;;52.20;25.00;;;7.40;99.90;;;;;;5131802;27;20020;-39
2022/03/26 00:44:17;;;;;;;49.25;24.13;;;7.50;99.90;;;;;;5146127;27;20027;-39
2022/03/26 00:46:47;;;;;;;44.40;24.35;;;7.50;99.90;;;;;;5150762;27;20113;-40
2022/03/26 00:49:14;;;;;;;51.03;23.58;;;7.50;99.90;;;;;;5149802;27;20026;-39
2022/03/26 00:51:40;;;;;;;43.25;24.13;;;7.50;99.90;;;;;;5150541;27;20079;-39
2022/03/26 00:54:08;;;;;;;44.40;22.95;;;7.50;99.90;;;;;;5150322;27;20026;-39
2022/03/26 00:56:34;;;;;;;49.22;23.55;;;7.50;99.90;;;;;;5148717;27;20038;-39
2022/03/26 00:59:00;;;;;;;46.53;24.48;;;7.50;99.90;;;;;;5132703;27;20030;-39
2022/03/26 01:01:25;;;;;;;58.90;26.65;;;7.50;99.90;;;;;;5141476;27;20019;-39
2022/03/26 01:03:51;;;;;;;53.53;25.73;;;7.40;99.90;;;;;;5150048;27;20387;-39
2022/03/26 01:06:18;;;;;;;52.75;27.35;;;7.50;99.90;;;;;;5146823;27;20031;-39
2022/03/26 01:08:44;;;;;;;57.10;26.85;;;7.40;99.90;;;;;;5140947;27;20025;-39
2022/03/26 01:11:10;;;;;;;48.03;25.02;;;7.40;99.90;;;;;;5150326;27;20114;-39
2022/03/26 01:13:38;;;;;;;59.78;26.20;;;7.40;99.90;;;;;;5134852;27;20031;-39
2022/03/26 01:16:04;;;;;;;50.10;25.42;;;7.40;99.90;;;;;;5141221;27;20303;-39
2022/03/26 01:18:30;;;;;;;54.35;26.30;;;7.40;99.90;;;;;;5149978;27;20101;-39
2022/03/26 01:20:56;;;;;;;46.67;23.45;;;7.40;99.90;;;;;;5148971;27;20098;-39
2022/03/26 01:23:21;;;;;;;48.63;24.20;;;7.40;99.90;;;;;;5138590;27;20024;-39
2022/03/26 01:25:47;;;;;;;61.28;29.45;;;7.40;99.90;;;;;;5148752;27;20059;-39
2022/03/26 01:28:13;;;;;;;64.78;29.08;;;7.40;99.90;;;;;;5138047;27;20084;-39
2022/03/26 01:30:39;;;;;;;58.03;28.75;;;7.40;99.90;;;;;;5140621;27;20035;-39
2022/03/26 01:33:08;;;;;;;57.78;26.42;;;7.40;99.90;;;;;;5149943;27;20467;-39
2022/03/26 01:35:33;;;;;;;55.17;26.23;;;7.30;99.90;;;;;;5148457;27;20026;-38
2022/03/26 01:38:01;;;;;;;51.40;26.02;;;7.30;99.90;;;;;;5148382;27;20018;-39
2022/03/26 01:40:27;;;;;;;58.92;27.48;;;7.20;99.90;;;;;;5133827;27;20020;-39
2022/03/26 01:42:54;;;;;;;54.63;27.98;;;7.20;99.90;;;;;;5139732;27;20110;-39
2022/03/26 01:45:20;;;;;;;61.20;26.77;;;7.10;99.90;;;;;;5149850;27;20042;-39
2022/03/26 01:47:46;;;;;;;55.53;26.15;;;7.20;99.90;;;;;;5149836;27;20031;-39
2022/03/26 01:50:11;;;;;;;57.10;28.30;;;7.10;99.90;;;;;;5139209;27;20019;-38
2022/03/26 01:52:37;;;;;;;51.50;24.98;;;7.20;99.90;;;;;;5149259;27;20027;-38
2022/03/26 01:55:02;;;;;;;56.53;27.67;;;7.10;99.90;;;;;;5148607;27;20022;-38
2022/03/26 01:57:29;;;;;;;53.85;25.05;;;7.10;99.90;;;;;;5149708;27;20026;-39
2022/03/26 01:59:55;;;;;;;51.92;25.88;;;7.00;99.90;;;;;;5149040;27;20034;-38
2022/03/26 02:02:20;;;;;;;54.42;27.05;;;7.00;99.90;;;;;;5140299;27;20280;-38
2022/03/26 02:04:46;;;;;;;55.28;27.85;;;7.00;99.90;;;;;;5141855;27;20015;-39
2022/03/26 02:07:11;;;;;;;59.05;28.33;;;7.00;99.90;;;;;;5144340;27;20334;-38
2022/03/26 02:09:37;;;;;;;66.28;29.77;;;7.00;99.90;;;;;;5140476;27;20023;-39
2022/03/26 02:12:21;;;;;;;59.60;27.17;;;7.00;99.90;;;;;;5149641;27;20027;-39
2022/03/26 02:14:46;;;;;;;60.00;28.05;;;7.00;99.90;;;;;;5129822;27;20025;-39
2022/03/26 02:17:12;;;;;;;56.63;27.35;;;7.00;99.90;;;;;;5146040;27;20031;-39
2022/03/26 02:19:37;;;;;;;55.28;27.27;;;7.00;99.90;;;;;;5145211;27;20075;-39
2022/03/26 02:22:04;;;;;;;55.97;27.10;;;6.90;99.90;;;;;;5140742;27;20031;-39
2022/03/26 02:24:29;;;;;;;61.42;29.20;;;6.90;99.90;;;;;;5149037;27;20022;-38
2022/03/26 02:26:55;;;;;;;60.78;28.65;;;6.90;99.90;;;;;;5149415;27;20181;-39
2022/03/26 02:29:20;;;;;;;63.55;29.15;;;6.90;99.90;;;;;;5136178;27;20031;-39
2022/03/26 02:31:46;;;;;;;61.65;28.15;;;6.90;99.90;;;;;;5140906;27;20035;-39
2022/03/26 02:34:12;;;;;;;56.20;26.77;;;6.90;99.90;;;;;;5147092;27;20023;-39
2022/03/26 02:36:37;;;;;;;59.92;29.00;;;6.90;99.90;;;;;;5142877;27;20034;-38
2022/03/26 02:39:04;;;;;;;56.38;27.58;;;6.90;99.90;;;;;;5152264;27;20048;-38
2022/03/26 02:41:31;;;;;;;62.58;30.52;;;6.90;99.90;;;;;;5137951;27;20019;-38
2022/03/26 02:43:56;;;;;;;60.03;30.65;;;7.00;99.90;;;;;;5146826;27;20023;-39
2022/03/26 02:46:22;;;;;;;72.95;30.08;;;7.00;99.90;;;;;;5148907;27;20479;-38
2022/03/26 02:48:48;;;;;;;73.28;33.08;;;7.00;99.90;;;;;;5144506;27;20492;-38
2022/03/26 02:51:13;;;;;;;65.15;29.02;;;7.10;99.90;;;;;;5152453;27;20540;-38
2022/03/26 02:53:39;;;;;;;65.72;30.00;;;7.10;99.90;;;;;;5153079;27;20102;-38
2022/03/26 02:56:04;;;;;;;68.97;30.90;;;7.10;99.90;;;;;;5152378;27;20026;-39
2022/03/26 02:58:30;;;;;;;65.07;30.02;;;7.10;99.90;;;;;;5141675;27;20023;-39
2022/03/26 03:00:57;;;;;;;69.50;31.13;;;7.10;99.90;;;;;;5141829;27;20027;-39
2022/03/26 03:03:22;;;;;;;74.53;31.85;;;7.20;99.90;;;;;;5152532;27;20026;-39
2022/03/26 03:05:48;;;;;;;65.05;32.97;;;7.20;99.90;;;;;;5152277;27;20014;-39
2022/03/26 03:08:14;;;;;;;66.32;30.88;;;7.10;99.90;;;;;;5138670;27;20034;-39
2022/03/26 03:10:42;;;;;;;72.10;31.90;;;7.10;99.90;;;;;;5151565;27;20026;-39
2022/03/26 03:13:08;;;;;;;64.97;31.15;;;7.20;99.90;;;;;;5152398;27;20019;-39
2022/03/26 03:15:33;;;;;;;63.88;30.42;;;7.20;99.90;;;;;;5152415;27;20023;-39
2022/03/26 03:17:59;;;;;;;70.43;31.27;;;7.10;99.90;;;;;;5152267;27;20474;-39
2022/03/26 03:20:25;;;;;;;68.38;29.80;;;7.10;99.90;;;;;;5141032;27;20025;-40
2022/03/26 03:22:51;;;;;;;64.10;31.60;;;7.10;99.90;;;;;;5152414;27;20433;-39
2022/03/26 03:25:16;;;;;;;71.63;32.58;;;7.10;99.90;;;;;;5152347;27;20015;-40
2022/03/26 03:27:42;;;;;;;74.47;32.70;;;7.10;99.90;;;;;;5145685;27;20075;-40
2022/03/26 03:30:09;;;;;;;71.97;33.47;;;7.10;99.90;;;;;;5146661;27;20075;-40
2022/03/26 03:32:35;;;;;;;73.85;34.17;;;7.10;99.90;;;;;;5151941;27;20069;-40
2022/03/26 03:35:01;;;;;;;72.72;32.00;;;7.20;99.90;;;;;;5151830;27;20041;-40
2022/03/26 03:37:27;;;;;;;81.90;35.97;;;7.20;99.90;;;;;;5150668;27;20023;-40
2022/03/26 03:39:52;;;;;;;75.70;36.67;;;7.20;99.90;;;;;;5149020;27;20439;-39
2022/03/26 03:42:18;;;;;;;90.55;34.75;;;7.20;99.90;;;;;;5135130;27;20041;-40
2022/03/26 03:44:43;;;;;;;80.30;37.58;;;7.20;99.90;;;;;;5143907;27;20011;-39
2022/03/26 03:47:09;;;;;;;80.35;35.80;;;7.20;99.90;;;;;;5139556;27;20024;-40
2022/03/26 03:49:35;;;;;;;77.13;34.10;;;7.20;99.90;;;;;;5140507;27;20030;-40
2022/03/26 03:52:01;;;;;;;82.45;33.25;;;7.20;99.90;;;;;;5151590;27;20109;-40
2022/03/26 03:54:27;;;;;;;75.95;35.28;;;7.10;99.90;;;;;;5151628;27;20114;-40
2022/03/26 03:56:53;;;;;;;79.20;34.17;;;7.20;99.90;;;;;;5150191;27;20031;-40
2022/03/26 03:59:19;;;;;;;73.93;34.53;;;7.20;99.90;;;;;;5141869;27;20019;-40
2022/03/26 04:01:44;;;;;;;75.35;33.35;;;7.20;99.90;;;;;;5141247;27;20373;-40
2022/03/26 04:04:10;;;;;;;73.68;36.10;;;7.10;99.90;;;;;;5140630;27;20027;-40
2022/03/26 04:06:36;;;;;;;62.35;29.83;;;7.10;99.90;;;;;;5120511;27;20394;-40
2022/03/26 04:09:02;;;;;;;71.32;33.55;;;7.00;99.90;;;;;;5121910;27;20480;-40
2022/03/26 04:11:27;;;;;;;62.33;32.22;;;7.00;99.90;;;;;;5123782;27;20020;-41
2022/03/26 04:13:54;;;;;;;67.10;30.90;;;6.90;99.90;;;;;;5126743;27;20102;-40
2022/03/26 04:16:20;;;;;;;69.38;33.53;;;6.80;99.90;;;;;;5130032;27;20023;-40
2022/03/26 04:18:45;;;;;;;75.07;34.70;;;6.70;99.90;;;;;;5129668;27;20102;-40
2022/03/26 04:21:11;;;;;;;64.53;30.88;;;6.70;99.90;;;;;;5121565;27;20095;-40
2022/03/26 04:23:37;;;;;;;74.65;33.50;;;6.70;99.90;;;;;;5140000;27;20023;-40
2022/03/26 04:26:02;;;;;;;73.95;32.70;;;6.60;99.90;;;;;;5151235;27;20023;-39
2022/03/26 04:28:28;;;;;;;72.40;32.80;;;6.60;99.90;;;;;;5120221;27;20070;-39
2022/03/26 04:30:54;;;;;;;68.82;31.17;;;6.50;99.90;;;;;;5115703;27;20150;-39
2022/03/26 04:33:19;;;;;;;64.90;31.13;;;6.50;99.90;;;;;;5119931;27;20019;-39
2022/03/26 04:35:45;;;;;;;64.93;30.05;;;6.40;99.90;;;;;;5120438;27;20045;-39
2022/03/26 04:38:10;;;;;;;63.25;30.27;;;6.30;99.90;;;;;;5126082;27;20076;-39
2022/03/26 04:40:36;;;;;;;64.97;31.05;;;6.30;99.90;;;;;;5118613;27;20015;-39
2022/03/26 04:43:01;;;;;;;70.78;33.35;;;6.20;99.90;;;;;;5120182;27;20016;-39
2022/03/26 04:45:28;;;;;;;63.13;31.08;;;6.20;99.90;;;;;;5119919;27;20095;-39
2022/03/26 04:47:54;;;;;;;69.40;30.95;;;6.10;99.90;;;;;;5117546;27;20449;-39
2022/03/26 04:50:19;;;;;;;69.43;31.08;;;6.10;99.90;;;;;;5118481;27;20019;-39
2022/03/26 04:52:45;;;;;;;76.65;33.47;;;6.00;99.90;;;;;;5117730;27;20452;-39
2022/03/26 04:55:13;;;;;;;76.40;33.03;;;6.00;99.90;;;;;;5117294;27;20024;-43
2022/03/26 04:57:44;;;;;;;75.63;33.95;;;6.00;99.90;;;;;;5125788;27;20029;-39
2022/03/26 05:00:11;;;;;;;78.70;33.75;;;6.00;99.90;;;;;;5133678;27;20035;-39
2022/03/26 05:02:38;;;;;;;70.40;32.05;;;5.90;99.90;;;;;;5141463;27;20511;-40
2022/03/26 05:05:05;;;;;;;65.53;32.13;;;5.90;99.90;;;;;;5150417;27;20097;-39
2022/03/26 05:07:46;;;;;;;79.25;36.97;;;5.90;99.90;;;;;;5143310;27;20491;-39
2022/03/26 05:10:12;;;;;;;75.40;35.08;;;5.90;99.90;;;;;;5144377;27;20482;-39
2022/03/26 05:12:37;;;;;;;78.25;35.60;;;6.00;99.90;;;;;;5150283;27;20087;-39
2022/03/26 05:15:03;;;;;;;82.05;36.88;;;6.00;99.90;;;;;;5145480;27;20494;-40
2022/03/26 05:17:29;;;;;;;86.45;35.97;;;6.00;99.90;;;;;;5141568;27;20030;-40
2022/03/26 05:19:54;;;;;;;87.95;37.20;;;6.00;99.90;;;;;;5149776;27;20026;-39
2022/03/26 05:22:20;;;;;;;84.57;36.72;;;6.00;99.90;;;;;;5150208;27;20106;-40
2022/03/26 05:24:45;;;;;;;83.68;36.75;;;6.00;99.90;;;;;;5140924;27;20468;-40
2022/03/26 05:27:11;;;;;;;80.85;36.15;;;6.00;99.90;;;;;;5141200;27;20031;-40
2022/03/26 05:29:36;;;;;;;84.60;36.95;;;6.00;99.90;;;;;;5134915;27;20019;-40
2022/03/26 05:32:04;;;;;;;86.03;37.38;;;6.10;99.90;;;;;;5143392;27;20420;-39
2022/03/26 05:34:29;;;;;;;92.47;38.47;;;6.10;99.90;;;;;;5115933;27;20364;-40
2022/03/26 05:36:55;;;;;;;85.90;37.15;;;6.10;99.90;;;;;;5141457;27;20452;-40
2022/03/26 05:39:20;;;;;;;84.03;37.47;;;6.10;99.90;;;;;;5122252;27;20027;-40
2022/03/26 05:41:47;;;;;;;86.95;36.47;;;6.10;99.90;;;;;;5127387;27;20429;-39
2022/03/26 05:44:13;;;;;;;85.95;38.22;;;6.10;99.90;;;;;;5124356;27;20472;-39
2022/03/26 05:46:38;;;;;;;82.50;38.22;;;6.10;99.90;;;;;;5118928;28;20029;-39
2022/03/26 05:49:04;;;;;;;94.28;40.92;;;6.10;99.90;;;;;;5119795;27;20024;-39
2022/03/26 05:51:30;;;;;;;85.60;40.80;;;6.20;99.90;;;;;;5129364;27;20038;-39
2022/03/26 05:53:56;;;;;;;83.28;38.17;;;6.20;99.90;;;;;;5129303;28;20044;-38
2022/03/26 05:56:22;;;;;;;99.53;41.13;;;6.20;99.90;;;;;;5116328;27;20031;-38
2022/03/26 05:58:50;;;;;;;99.47;41.10;;;6.20;99.90;;;;;;5138138;27;20403;-40
2022/03/26 06:01:16;;;;;;;102.85;40.83;;;6.30;99.90;;;;;;5149830;27;20217;-39
2022/03/26 06:03:41;;;;;;;95.50;41.90;;;6.30;99.90;;;;;;5145245;27;20019;-39
2022/03/26 06:06:07;;;;;;;93.13;40.70;;;6.30;99.90;;;;;;5140706;27;20019;-38
2022/03/26 06:08:33;;;;;;;107.15;44.65;;;6.40;99.90;;;;;;5151757;27;20034;-38
2022/03/26 06:10:59;;;;;;;106.25;43.30;;;6.40;99.90;;;;;;5145303;27;20665;-39
2022/03/26 06:13:25;;;;;;;103.13;45.03;;;6.40;99.90;;;;;;5151324;27;20058;-39
2022/03/26 06:15:50;;;;;;;95.95;45.45;;;6.40;99.90;;;;;;5134897;27;20163;-39
2022/03/26 06:18:15;;;;;;;108.05;46.30;;;6.50;99.90;;;;;;5143057;27;20081;-39
2022/03/26 06:20:42;;;;;;;106.70;47.05;;;6.50;99.90;;;;;;5152930;27;20022;-39
2022/03/26 06:23:08;;;;;;;121.50;49.95;;;6.50;99.90;;;;;;5137695;27;20541;-39
2022/03/26 06:25:33;;;;;;;142.98;55.75;;;6.50;99.90;;;;;;5136399;27;20047;-39
2022/03/26 06:27:59;;;;;;;133.07;57.25;;;6.60;99.90;;;;;;5153335;27;20103;-39
2022/03/26 06:30:25;;;;;;;128.32;57.75;;;6.60;99.90;;;;;;5134254;27;20383;-39
2022/03/26 06:32:52;;;;;;;127.50;56.60;;;6.70;99.90;;;;;;5145837;27;20026;-39
2022/03/26 06:35:18;;;;;;;133.43;57.30;;;6.70;99.90;;;;;;5153403;27;20029;-39
2022/03/26 06:37:43;;;;;;;135.35;59.42;;;6.80;99.90;;;;;;5153221;27;20387;-38
2022/03/26 06:40:09;;;;;;;131.65;58.75;;;6.90;99.90;;;;;;5152384;27;20416;-39
2022/03/26 06:42:35;;;;;;;128.68;57.50;;;6.90;99.90;;;;;;5131647;27;20027;-38
2022/03/26 06:45:00;;;;;;;128.82;57.63;;;7.00;99.90;;;;;;5145890;27;20471;-38
2022/03/26 06:47:27;;;;;;;139.35;58.85;;;7.00;99.90;;;;;;5153447;27;20027;-38
2022/03/26 06:49:53;;;;;;;134.52;57.88;;;7.10;99.90;;;;;;5144234;27;20070;-39
2022/03/26 06:52:21;;;;;;;139.13;58.72;;;7.10;99.90;;;;;;5138333;27;20450;-39
2022/03/26 06:54:46;;;;;;;138.18;58.38;;;7.20;99.90;;;;;;5153126;27;20018;-42
2022/03/26 06:57:12;;;;;;;124.00;54.80;;;7.20;99.90;;;;;;5152632;27;20030;-39
2022/03/26 06:59:38;;;;;;;120.53;55.30;;;7.20;99.90;;;;;;5140145;27;20023;-39
2022/03/26 07:02:04;;;;;;;120.85;54.05;;;7.30;99.90;;;;;;5143980;27;20073;-39
2022/03/26 07:04:29;;;;;;;116.43;52.13;;;7.30;99.90;;;;;;5152654;27;20023;-39
2022/03/26 07:06:55;;;;;;;116.82;54.85;;;7.30;99.90;;;;;;5135250;27;20023;-39
2022/03/26 07:09:23;;;;;;;126.95;56.40;;;7.40;99.90;;;;;;5149204;27;20051;-38
2022/03/26 07:11:49;;;;;;;122.82;54.88;;;7.50;99.90;;;;;;5152605;27;20015;-39
2022/03/26 07:14:15;;;;;;;113.82;53.58;;;7.60;99.90;;;;;;5131673;27;20050;-39
2022/03/26 07:16:40;;;;;;;120.97;56.10;;;7.60;99.90;;;;;;5120240;27;20066;-39
2022/03/26 07:19:06;;;;;;;127.88;57.28;;;7.70;99.90;;;;;;5117388;27;20087;-39
2022/03/26 07:21:32;;;;;;;122.18;52.90;;;7.70;99.90;;;;;;5112211;27;20024;-39
2022/03/26 07:23:57;;;;;;;111.78;52.13;;;7.80;99.90;;;;;;5126746;27;20431;-39
2022/03/26 07:26:23;;;;;;;120.65;52.55;;;7.80;99.90;;;;;;5141421;27;20094;-44
2022/03/26 07:28:49;;;;;;;112.88;51.30;;;7.90;99.90;;;;;;5115184;27;20023;-39
2022/03/26 07:31:15;;;;;;;122.68;55.17;;;8.00;99.90;;;;;;5127768;27;20024;-39
2022/03/26 07:33:41;;;;;;;114.65;51.58;;;8.10;99.90;;;;;;5122659;27;20028;-40
2022/03/26 07:36:06;;;;;;;115.18;52.08;;;8.20;99.90;;;;;;5113383;27;20388;-40
2022/03/26 07:38:32;;;;;;;115.43;51.88;;;8.30;99.90;;;;;;5110466;28;20023;-40
2022/03/26 07:40:57;;;;;;;110.63;51.38;;;8.40;99.90;;;;;;5108763;28;20019;-40
2022/03/26 07:43:23;;;;;;;113.15;50.97;;;8.50;99.90;;;;;;5128105;27;20021;-39
2022/03/26 07:45:49;;;;;;;111.55;54.30;;;8.60;99.90;;;;;;5144046;27;20019;-39
2022/03/26 07:48:14;;;;;;;102.63;51.42;;;8.70;99.90;;;;;;5145848;27;20471;-39
2022/03/26 07:50:40;;;;;;;109.20;51.50;;;8.90;99.90;;;;;;5141866;27;20391;-39
2022/03/26 07:53:06;;;;;;;105.63;48.67;;;8.90;99.90;;;;;;5151743;27;20023;-40
2022/03/26 07:55:31;;;;;;;110.70;50.30;;;9.10;99.90;;;;;;5136567;27;20045;-39
2022/03/26 07:57:57;;;;;;;103.38;49.28;;;9.20;99.90;;;;;;5145278;27;20022;-40
2022/03/26 08:00:22;;;;;;;110.00;49.83;;;9.30;99.90;;;;;;5137388;27;20066;-40
2022/03/26 08:02:48;;;;;;;101.15;48.45;;;9.50;99.90;;;;;;5142636;27;20019;-39
2022/03/26 08:05:14;;;;;;;97.97;47.15;;;9.70;99.90;;;;;;5141342;27;20058;-40
2022/03/26 08:07:39;;;;;;;90.95;46.60;;;9.70;99.90;;;;;;5142658;27;20101;-39
2022/03/26 08:10:05;;;;;;;92.78;46.95;;;9.90;99.90;;;;;;5145449;27;20019;-40
2022/03/26 08:12:31;;;;;;;92.32;44.22;;;10.00;99.90;;;;;;5142740;27;20027;-39
2022/03/26 08:14:56;;;;;;;87.43;44.47;;;10.20;99.90;;;;;;5149424;27;20022;-39
2022/03/26 08:17:22;;;;;;;83.95;42.78;;;10.20;99.90;;;;;;5144923;27;20050;-39
2022/03/26 08:19:49;;;;;;;81.78;42.08;;;10.60;99.90;;;;;;5143149;27;20064;-39
2022/03/26 08:22:14;;;;;;;91.60;45.30;;;11.00;99.90;;;;;;5151057;27;20022;-39
2022/03/26 08:24:40;;;;;;;85.47;43.80;;;11.40;99.90;;;;;;5134200;27;20072;-39
2022/03/26 08:27:05;;;;;;;85.07;43.28;;;12.00;99.30;;;;;;5140627;27;20030;-39
2022/03/26 08:29:31;;;;;;;79.30;42.83;;;12.60;97.50;;;;;;5149582;27;20018;-40
2022/03/26 08:31:56;;;;;;;79.50;42.28;;;13.60;94.50;;;;;;5145840;27;20026;-40
2022/03/26 08:34:22;;;;;;;70.88;39.17;;;15.10;91.40;;;;;;5142640;27;20037;-38
2022/03/26 08:36:47;;;;;;;66.25;38.53;;;16.50;83.50;;;;;;5148837;27;20491;-39
2022/03/26 08:39:13;;;;;;;62.25;37.55;;;17.50;78.60;;;;;;5132749;27;20027;-38
2022/03/26 08:41:38;;;;;;;51.95;34.03;;;18.80;71.40;;;;;;5150556;27;20027;-39
2022/03/26 08:44:04;;;;;;;48.28;31.17;;;19.70;65.30;;;;;;5139195;27;20022;-39
2022/03/26 08:46:30;;;;;;;51.40;33.72;;;20.70;62.10;;;;;;5140646;27;20040;-39
2022/03/26 08:48:58;;;;;;;46.88;32.88;;;21.50;58.50;;;;;;5149865;27;20050;-41
2022/03/26 08:51:23;;;;;;;49.08;32.10;;;22.30;56.00;;;;;;5150812;27;20403;-40
2022/03/26 08:53:49;;;;;;;51.42;34.53;;;22.70;54.60;;;;;;5150742;27;20463;-42
2022/03/26 08:56:14;;;;;;;50.63;33.13;;;23.40;52.30;;;;;;5150635;27;20041;-41
2022/03/26 08:58:40;;;;;;;41.60;29.98;;;24.00;50.10;;;;;;5148312;27;20019;-41
2022/03/26 09:01:07;;;;;;;44.97;29.08;;;24.20;49.70;;;;;;5150524;27;20075;-41
2022/03/26 09:03:33;;;;;;;40.78;29.45;;;24.80;49.10;;;;;;5150380;27;20018;-41
2022/03/26 09:05:58;;;;;;;38.03;27.27;;;24.60;48.00;;;;;;5137572;27;20570;-40
2022/03/26 09:08:24;;;;;;;44.67;28.20;;;24.90;48.30;;;;;;5141257;27;20041;-40
2022/03/26 09:10:49;;;;;;;34.65;24.10;;;25.10;47.00;;;;;;5149758;27;20105;-39
2022/03/26 09:13:15;;;;;;;38.08;26.48;;;25.70;46.50;;;;;;5148900;27;20600;-39
2022/03/26 09:15:40;;;;;;;38.95;26.25;;;25.70;46.60;;;;;;5150080;27;20080;-39
2022/03/26 09:18:06;;;;;;;36.88;25.30;;;25.10;46.30;;;;;;5150011;27;20034;-39
2022/03/26 09:20:32;;;;;;;36.85;26.80;;;25.50;46.40;;;;;;5149708;27;20250;-38
2022/03/26 09:22:58;;;;;;;33.80;25.05;;;24.50;46.50;;;;;;5148947;27;20023;-38
2022/03/26 09:25:24;;;;;;;29.75;20.52;;;25.60;47.60;;;;;;5134938;27;20027;-39
2022/03/26 09:27:50;;;;;;;34.75;24.10;;;26.40;45.90;;;;;;5142695;27;20078;-39
2022/03/26 09:30:17;;;;;;;25.05;20.70;;;26.50;45.30;;;;;;5147962;27;20386;-40
2022/03/26 09:32:46;;;;;;;31.70;21.25;;;26.90;45.30;;;;;;5139508;27;20031;-39
2022/03/26 09:35:12;;;;;;;31.90;22.45;;;27.30;43.90;;;;;;5147334;27;20030;-41
2022/03/26 09:37:40;;;;;;;24.20;18.40;;;27.40;44.90;;;;;;5151671;27;20026;-39
2022/03/26 09:40:07;;;;;;;26.27;18.40;;;27.20;43.60;;;;;;5142293;27;20031;-39
2022/03/26 09:42:34;;;;;;;21.95;16.02;;;27.50;43.50;;;;;;5132587;27;20031;-39
2022/03/26 09:44:59;;;;;;;26.20;17.77;;;27.30;43.90;;;;;;5135782;27;20019;-43
2022/03/26 09:47:25;;;;;;;23.85;18.80;;;26.60;44.20;;;;;;5124150;27;20035;-38
2022/03/26 09:49:51;;;;;;;23.52;16.98;;;26.00;45.30;;;;;;5124491;27;20107;-39
2022/03/26 09:52:17;;;;;;;27.40;18.15;;;26.40;45.00;;;;;;5127829;27;20034;-39
2022/03/26 09:54:43;;;;;;;21.08;15.27;;;26.70;44.70;;;;;;5122517;27;20030;-39
2022/03/26 09:57:09;;;;;;;25.63;17.58;;;27.00;43.40;;;;;;5132868;27;20031;-39
2022/03/26 09:59:34;;;;;;;20.33;15.65;;;27.60;42.60;;;;;;5131733;27;20028;-39
2022/03/26 10:02:02;;;;;;;22.05;16.38;;;28.30;42.40;;;;;;5145024;27;20520;-39
2022/03/26 10:04:40;;;;;;;20.02;15.32;;;28.80;41.60;;;;;;5153515;27;20023;-39
2022/03/26 10:07:06;;;;;;;25.33;17.30;;;29.10;40.80;;;;;;5154517;27;20037;-39
2022/03/26 10:09:42;;;;;;;22.65;16.30;;;28.10;41.00;;;;;;5154582;27;20018;-39
2022/03/26 10:12:12;;;;;;;28.20;18.45;;;27.50;42.40;;;;;;5155399;27;20034;-39
2022/03/26 10:14:42;;;;;;;24.05;17.15;;;27.70;42.60;;;;;;5155247;27;20046;-39
2022/03/26 10:17:11;;;;;;;22.88;17.40;;;27.90;42.00;;;;;;5155003;27;20030;-40
2022/03/26 10:19:41;;;;;;;27.98;19.58;;;28.30;42.00;;;;;;5154227;27;20030;-39
2022/03/26 10:22:11;;;;;;;;;;;29.00;40.20;;;;;;5155503;27;20037;-40
2022/03/26 10:24:43;;;;;;;26.42;20.60;;;28.70;39.30;;;;;;5155385;27;19903;-39
2022/03/26 10:27:11;;;;;;;22.95;17.67;;;28.30;40.60;;;;;;5154881;27;20022;-39
2022/03/26 10:29:50;;;;;;;24.60;17.35;;;28.00;41.40;;;;;;5144929;27;20090;-39
2022/03/26 10:32:41;;;;;;;25.77;18.40;;;28.00;41.70;;;;;;5150803;27;20057;-39
2022/03/26 10:35:13;;;;;;;27.67;17.08;;;28.40;40.70;;;;;;5154515;27;20033;-40
2022/03/26 10:37:55;;;;;;;20.95;16.13;;;28.60;40.60;;;;;;5154563;27;20356;-39
2022/03/26 10:40:24;;;;;;;21.80;17.27;;;27.90;41.60;;;;;;5152695;27;20027;-39
2022/03/26 10:43:02;;;;;;;24.75;16.13;;;27.40;41.10;;;;;;5154762;27;20032;-39
2022/03/26 10:45:29;;;;;;;20.90;16.10;;;27.70;41.20;;;;;;5141720;27;20027;-39
2022/03/26 10:47:56;;;;;;;21.58;15.63;;;28.00;41.80;;;;;;5154707;27;20026;-40
2022/03/26 10:50:23;;;;;;;19.17;14.65;;;28.40;40.70;;;;;;5153869;27;20027;-40
2022/03/26 10:52:52;;;;;;;17.80;14.90;;;28.50;41.10;;;;;;5141856;27;20079;-39
2022/03/26 10:55:18;;;;;;;24.27;16.40;;;28.90;40.70;;;;;;5151103;27;20027;-39
2022/03/26 10:57:46;;;;;;;22.05;16.45;;;28.70;40.50;;;;;;5154463;27;20284;-39
2022/03/26 11:00:14;;;;;;;21.95;16.13;;;27.90;40.90;;;;;;5150132;27;20058;-39
2022/03/26 11:02:41;;;;;;;23.00;17.73;;;28.00;42.10;;;;;;5145638;27;20075;-39
2022/03/26 11:05:07;;;;;;;22.33;17.48;;;27.70;41.70;;;;;;5153059;27;20050;-39
2022/03/26 11:07:36;;;;;;;22.20;15.65;;;28.50;41.10;;;;;;5154219;27;20398;-40
2022/03/26 11:10:04;;;;;;;26.33;18.77;;;28.30;41.50;;;;;;5153431;27;20634;-41
2022/03/26 11:12:31;;;;;;;19.27;16.02;;;27.50;41.80;;;;;;5153914;27;20034;-40
2022/03/26 11:14:57;;;;;;;22.73;15.57;;;27.40;42.40;;;;;;5140954;27;20027;-39
2022/03/26 11:17:57;;;;;;;24.35;18.02;;;27.10;43.70;;;;;;5140022;27;20034;-40
2022/03/26 11:20:47;;;;;;;21.17;17.70;;;27.50;42.70;;;;;;5153096;27;20153;-40
2022/03/26 11:23:30;;;;;;;23.17;17.67;;;26.80;43.90;;;;;;5153896;27;20018;-39
2022/03/26 11:26:29;;;;;;;22.73;16.27;;;26.80;45.10;;;;;;5135144;27;20023;-39
2022/03/26 11:29:32;;;;;;;27.95;19.50;;;27.00;45.20;;;;;;5111963;28;20035;-39
2022/03/26 11:32:19;;;;;;;23.75;17.05;;;27.10;43.60;;;;;;5107354;28;20018;-38
2022/03/26 11:34:46;;;;;;;24.88;17.85;;;26.30;44.40;;;;;;5110393;28;20626;-39
2022/03/26 11:37:22;;;;;;;26.10;19.38;;;25.20;46.80;;;;;;5117725;27;20577;-40
2022/03/26 11:39:56;;;;;;;25.08;18.52;;;24.20;47.70;;;;;;5125868;27;20136;-40
2022/03/26 11:42:35;;;;;;;32.13;18.80;;;23.50;49.50;;;;;;5129926;27;20480;-39
2022/03/26 11:51:23;;;;;;;28.92;19.45;;;21.50;53.70;;;;;;5120810;27;20044;-38
2022/03/26 11:54:13;;;;;;;34.10;22.80;;;21.10;54.40;;;;;;5118715;27;20467;-38
2022/03/26 11:56:39;;;;;;;35.70;22.30;;;20.60;55.20;;;;;;5110621;28;20035;-38
2022/03/26 11:59:07;;;;;;;29.15;20.70;;;20.20;56.50;;;;;;5131659;27;20071;-38
2022/03/26 12:01:41;;;;;;;32.05;20.77;;;19.90;57.30;;;;;;5150805;27;20380;-38
2022/03/26 12:04:17;;;;;;;28.90;19.33;;;20.20;57.60;;;;;;5150667;27;20273;-38
2022/03/26 12:06:44;;;;;;;29.80;19.50;;;20.80;55.90;;;;;;5128236;27;20180;-38
2022/03/26 12:09:35;;;;;;;29.85;19.70;;;21.30;55.70;;;;;;5109357;28;20027;-38
2022/03/26 12:12:05;;;;;;;31.92;20.42;;;22.40;53.70;;;;;;5107686;28;20047;-39
2022/03/26 12:14:35;;;;;;;26.83;19.80;;;23.50;51.30;;;;;;5107400;28;20035;-39
2022/03/26 12:17:03;;;;;;;25.35;18.20;;;24.00;49.00;;;;;;5131568;27;20115;-39
2022/03/26 12:20:00;;;;;;;24.83;17.48;;;23.90;50.10;;;;;;5147414;27;20018;-38
2022/03/26 12:22:28;;;;;;;25.20;17.30;;;24.30;50.30;;;;;;5149024;27;20424;-38
2022/03/26 12:24:56;;;;;;;21.40;15.27;;;24.30;49.70;;;;;;5142149;27;20106;-37
2022/03/26 12:27:23;;;;;;;24.00;16.20;;;24.00;50.50;;;;;;5140915;27;20034;-37
2022/03/26 12:29:52;;;;;;;26.25;17.60;;;23.30;51.70;;;;;;5146250;27;20057;-38
2022/03/26 12:32:18;;;;;;;26.20;16.98;;;23.00;50.20;;;;;;5148813;27;20585;-45
2022/03/26 12:35:10;;;;;;;26.13;18.10;;;22.30;51.70;;;;;;5150148;27;20554;-46
2022/03/26 12:37:38;;;;;;;24.42;16.33;;;21.80;54.70;;;;;;5145975;27;20050;-44
2022/03/26 12:40:07;;;;;;;24.27;14.80;;;22.10;54.10;;;;;;5150106;27;20425;-45